Time,TemperatureF,DewpointF,PressureIn,WindDirection,WindDirectionDegrees,WindSpeedMPH,WindSpeedGustMPH,Humidity,HourlyPrecipIn,Conditions,Clouds,dailyrainin,SoftwareType,DateUTC
2013-04-03 00:00:00,31.0,15.9,30.26,WSW,247,0.0,8.0,53,0.00,,,-99.99,Weather View 32 v60,2013-04-03 04:00:00,
2013-04-03 00:05:00,31.0,16.3,30.26,WSW,247,0.0,8.0,54,0.00,,,-99.99,Weather View 32 v60,2013-04-03 04:05:00,
2013-04-03 00:10:00,31.0,16.7,30.27,West,270,0.0,8.0,55,0.00,,,-99.99,Weather View 32 v60,2013-04-03 04:10:00,
2013-04-03 00:15:00,30.0,15.8,30.27,WSW,247,0.0,8.0,55,0.00,,,-99.99,Weather View 32 v60,2013-04-03 04:15:00,
2013-04-03 00:25:00,30.0,16.6,30.26,WSW,247,0.0,7.0,57,0.00,,,-99.99,Weather View 32 v60,2013-04-03 04:25:00,
2013-04-03 00:35:00,30.0,16.2,30.27,SW,225,0.0,7.0,56,0.00,,,-99.99,Weather View 32 v60,2013-04-03 04:35:00,
2013-04-03 00:40:00,30.0,16.6,30.27,WSW,247,0.0,7.0,57,0.00,,,-99.99,Weather View 32 v60,2013-04-03 04:40:00,
2013-04-03 00:50:00,30.0,15.8,30.27,WSW,247,0.0,8.0,55,0.00,,,-99.99,Weather View 32 v60,2013-04-03 04:50:00,
2013-04-03 00:55:00,30.0,16.6,30.27,WSW,247,3.0,8.0,57,0.00,,,-99.99,Weather View 32 v60,2013-04-03 04:55:00,
2013-04-03 01:00:00,30.0,15.8,30.27,SW,225,0.0,8.0,55,0.00,,,-99.99,Weather View 32 v60,2013-04-03 05:00:00,
2013-04-03 01:10:00,29.0,15.7,30.28,West,270,0.0,8.0,57,0.00,,,-99.99,Weather View 32 v60,2013-04-03 05:10:00,
2013-04-03 01:15:00,29.0,15.7,30.28,WSW,247,0.0,8.0,57,0.00,,,-99.99,Weather View 32 v60,2013-04-03 05:15:00,
2013-04-03 01:25:00,28.0,15.1,30.28,SW,225,0.0,8.0,58,0.00,,,-99.99,Weather View 32 v60,2013-04-03 05:25:00,
2013-04-03 01:30:00,28.0,15.1,30.28,SW,225,0.0,8.0,58,0.00,,,-99.99,Weather View 32 v60,2013-04-03 05:30:00,
2013-04-03 01:40:00,28.0,15.5,30.29,WSW,247,0.0,8.0,59,0.00,,,-99.99,Weather View 32 v60,2013-04-03 05:40:00,
2013-04-03 01:50:00,28.0,15.9,30.29,SW,225,0.0,3.0,60,0.00,,,-99.99,Weather View 32 v60,2013-04-03 05:50:00,
2013-04-03 01:55:00,28.0,15.5,30.29,SW,225,0.0,3.0,59,0.00,,,-99.99,Weather View 32 v60,2013-04-03 05:55:00,
2013-04-03 02:01:00,28.0,15.5,30.29,SW,225,0.0,3.0,59,0.00,,,-99.99,Weather View 32 v60,2013-04-03 06:01:00,
2013-04-03 02:10:00,28.0,14.7,30.28,SW,225,0.0,3.0,57,0.00,,,-99.99,Weather View 32 v60,2013-04-03 06:10:00,
2013-04-03 02:20:00,28.0,15.1,30.28,SW,225,0.0,0.0,58,0.00,,,-99.99,Weather View 32 v60,2013-04-03 06:20:00,
2013-04-03 02:25:00,28.0,15.1,30.28,SW,225,0.0,0.0,58,0.00,,,-99.99,Weather View 32 v60,2013-04-03 06:25:00,
2013-04-03 02:35:00,27.0,14.6,30.28,SW,225,0.0,0.0,59,0.00,,,-99.99,Weather View 32 v60,2013-04-03 06:35:00,
2013-04-03 02:45:00,27.0,14.6,30.28,SW,225,0.0,0.0,59,0.00,,,-99.99,Weather View 32 v60,2013-04-03 06:45:00,
2013-04-03 02:55:00,27.0,13.8,30.28,SW,225,0.0,0.0,57,0.00,,,-99.99,Weather View 32 v60,2013-04-03 06:55:00,
2013-04-03 03:00:00,27.0,14.2,30.28,SW,225,0.0,0.0,58,0.00,,,-99.99,Weather View 32 v60,2013-04-03 07:00:00,
2013-04-03 03:05:00,27.0,13.8,30.28,SW,225,0.0,0.0,57,0.00,,,-99.99,Weather View 32 v60,2013-04-03 07:05:00,
2013-04-03 03:15:00,27.0,14.6,30.27,SW,225,0.0,0.0,59,0.00,,,-99.99,Weather View 32 v60,2013-04-03 07:15:00,
2013-04-03 03:20:00,27.0,15.0,30.28,SW,225,0.0,0.0,60,0.00,,,-99.99,Weather View 32 v60,2013-04-03 07:20:00,
2013-04-03 03:30:00,26.0,13.6,30.28,SW,225,0.0,2.0,59,0.00,,,-99.99,Weather View 32 v60,2013-04-03 07:30:00,
2013-04-03 03:40:00,27.0,14.2,30.28,SW,225,0.0,2.0,58,0.00,,,-99.99,Weather View 32 v60,2013-04-03 07:40:00,
2013-04-03 03:45:00,27.0,13.8,30.28,SW,225,0.0,2.0,57,0.00,,,-99.99,Weather View 32 v60,2013-04-03 07:45:00,
2013-04-03 03:55:00,27.0,14.2,30.28,SW,225,0.0,3.0,58,0.00,,,-99.99,Weather View 32 v60,2013-04-03 07:55:00,
2013-04-03 04:00:00,27.0,14.6,30.27,SW,225,0.0,3.0,59,0.00,,,-99.99,Weather View 32 v60,2013-04-03 08:00:00,
2013-04-03 04:05:00,27.0,15.0,30.27,SW,225,0.0,3.0,60,0.00,,,-99.99,Weather View 32 v60,2013-04-03 08:05:00,
2013-04-03 04:15:00,27.0,13.8,30.28,SW,225,0.0,3.0,57,0.00,,,-99.99,Weather View 32 v60,2013-04-03 08:15:00,
2013-04-03 04:25:00,27.0,13.4,30.28,SW,225,0.0,3.0,56,0.00,,,-99.99,Weather View 32 v60,2013-04-03 08:25:00,
2013-04-03 04:35:00,28.0,14.3,30.29,SW,225,0.0,3.0,56,0.00,,,-99.99,Weather View 32 v60,2013-04-03 08:35:00,
2013-04-03 04:40:00,28.0,13.9,30.29,SW,225,1.0,3.0,55,0.00,,,-99.99,Weather View 32 v60,2013-04-03 08:40:00,
2013-04-03 04:50:00,27.0,13.0,30.29,SW,225,0.0,4.0,55,0.00,,,-99.99,Weather View 32 v60,2013-04-03 08:50:00,
2013-04-03 05:00:00,27.0,13.4,30.29,SW,225,3.0,4.0,56,0.00,,,-99.99,Weather View 32 v60,2013-04-03 09:00:00,
2013-04-03 05:05:00,27.0,13.8,30.29,SW,225,0.0,6.0,57,0.00,,,-99.99,Weather View 32 v60,2013-04-03 09:05:00,
2013-04-03 05:10:00,27.0,13.8,30.29,SW,225,1.0,6.0,57,0.00,,,-99.99,Weather View 32 v60,2013-04-03 09:10:00,
2013-04-03 05:15:00,27.0,13.8,30.29,SW,225,2.0,6.0,57,0.00,,,-99.99,Weather View 32 v60,2013-04-03 09:15:00,
2013-04-03 05:25:00,27.0,13.8,30.30,SW,225,2.0,6.0,57,0.00,,,-99.99,Weather View 32 v60,2013-04-03 09:25:00,
2013-04-03 05:35:00,27.0,13.8,30.30,SW,225,0.0,6.0,57,0.00,,,-99.99,Weather View 32 v60,2013-04-03 09:35:00,
2013-04-03 05:40:00,26.0,13.2,30.30,SW,225,0.0,6.0,58,0.00,,,-99.99,Weather View 32 v60,2013-04-03 09:40:00,
2013-04-03 05:45:00,26.0,13.6,30.30,SW,225,0.0,6.0,59,0.00,,,-99.99,Weather View 32 v60,2013-04-03 09:45:00,
2013-04-03 05:55:00,26.0,13.6,30.31,SW,225,0.0,6.0,59,0.00,,,-99.99,Weather View 32 v60,2013-04-03 09:55:00,
2013-04-03 06:03:00,26.0,13.6,30.31,SW,225,0.0,6.0,59,0.00,,,-99.99,Weather View 32 v60,2013-04-03 10:03:00,
2013-04-03 06:10:00,26.0,13.6,30.31,SW,225,0.0,5.0,59,0.00,,,-99.99,Weather View 32 v60,2013-04-03 10:10:00,
2013-04-03 06:20:00,26.0,13.6,30.31,SW,225,0.0,5.0,59,0.00,,,-99.99,Weather View 32 v60,2013-04-03 10:20:00,
2013-04-03 06:30:00,26.0,14.4,30.32,SW,225,0.0,5.0,61,0.00,,,-99.99,Weather View 32 v60,2013-04-03 10:30:00,
2013-04-03 06:40:00,26.0,14.4,30.32,SW,225,0.0,5.0,61,0.00,,,-99.99,Weather View 32 v60,2013-04-03 10:40:00,
2013-04-03 06:45:00,26.0,15.1,30.32,SW,225,0.0,5.0,63,0.00,,,-99.99,Weather View 32 v60,2013-04-03 10:45:00,
2013-04-03 06:50:00,26.0,14.8,30.32,SW,225,0.0,5.0,62,0.00,,,-99.99,Weather View 32 v60,2013-04-03 10:50:00,
2013-04-03 07:00:00,26.0,14.4,30.33,SW,225,0.0,5.0,61,0.00,,,-99.99,Weather View 32 v60,2013-04-03 11:00:00,
2013-04-03 07:05:00,26.0,14.8,30.33,SW,225,0.0,3.0,62,0.00,,,-99.99,Weather View 32 v60,2013-04-03 11:05:00,
2013-04-03 07:15:00,26.0,15.1,30.33,WSW,247,0.0,3.0,63,0.00,,,-99.99,Weather View 32 v60,2013-04-03 11:15:00,
2013-04-03 07:25:00,27.0,15.3,30.33,SW,225,0.0,3.0,61,0.00,,,-99.99,Weather View 32 v60,2013-04-03 11:25:00,
2013-04-03 07:30:00,28.0,16.7,30.34,SW,225,0.0,3.0,62,0.00,,,-99.99,Weather View 32 v60,2013-04-03 11:30:00,
2013-04-03 07:40:00,29.0,16.1,30.33,SW,225,0.0,5.0,58,0.00,,,-99.99,Weather View 32 v60,2013-04-03 11:40:00,
2013-04-03 07:45:00,30.0,17.0,30.33,SW,225,0.0,5.0,58,0.00,,,-99.99,Weather View 32 v60,2013-04-03 11:45:00,
2013-04-03 07:55:00,32.0,17.6,30.34,SW,225,0.0,5.0,55,0.00,,,-99.99,Weather View 32 v60,2013-04-03 11:55:00,
2013-04-03 08:04:00,32.0,17.6,30.33,SW,225,0.0,5.0,55,0.00,,,-99.99,Weather View 32 v60,2013-04-03 12:04:00,
2013-04-03 08:10:00,33.0,16.8,30.34,WSW,247,0.0,5.0,51,0.00,,,-99.99,Weather View 32 v60,2013-04-03 12:10:00,
2013-04-03 08:15:00,33.0,17.3,30.34,SW,225,0.0,5.0,52,0.00,,,-99.99,Weather View 32 v60,2013-04-03 12:15:00,
2013-04-03 08:25:00,34.0,17.8,30.34,West,270,5.0,7.0,51,0.00,,,-99.99,Weather View 32 v60,2013-04-03 12:25:00,
2013-04-03 08:35:00,35.0,17.8,30.33,SW,225,4.0,8.0,49,0.00,,,-99.99,Weather View 32 v60,2013-04-03 12:35:00,
2013-04-03 08:40:00,35.0,16.3,30.33,WSW,247,5.0,8.0,46,0.00,,,-99.99,Weather View 32 v60,2013-04-03 12:40:00,
2013-04-03 08:45:00,36.0,18.2,30.33,NW,315,0.0,8.0,48,0.00,,,-99.99,Weather View 32 v60,2013-04-03 12:45:00,
2013-04-03 08:55:00,37.0,18.6,30.32,SW,225,0.0,8.0,47,0.00,,,-99.99,Weather View 32 v60,2013-04-03 12:55:00,
2013-04-03 09:05:00,37.0,17.1,30.31,West,270,3.0,8.0,44,0.00,,,-99.99,Weather View 32 v60,2013-04-03 13:05:00,
2013-04-03 09:15:00,36.0,16.7,30.31,SW,225,4.0,14.0,45,0.00,,,-99.99,Weather View 32 v60,2013-04-03 13:15:00,
2013-04-03 09:20:00,37.0,17.6,30.31,WSW,247,3.0,14.0,45,0.00,,,-99.99,Weather View 32 v60,2013-04-03 13:20:00,
2013-04-03 09:30:00,38.0,16.9,30.31,West,270,6.0,14.0,42,0.00,,,-99.99,Weather View 32 v60,2013-04-03 13:30:00,
2013-04-03 09:40:00,38.0,15.8,30.30,WSW,247,3.0,14.0,40,0.00,,,-99.99,Weather View 32 v60,2013-04-03 13:40:00,
2013-04-03 09:50:00,38.0,16.4,30.30,WSW,247,3.0,14.0,41,0.00,,,-99.99,Weather View 32 v60,2013-04-03 13:50:00,
2013-04-03 09:55:00,38.0,15.2,30.30,WSW,247,2.0,14.0,39,0.00,,,-99.99,Weather View 32 v60,2013-04-03 13:55:00,
2013-04-03 10:05:00,38.0,15.8,30.30,WNW,292,3.0,14.0,40,0.00,,,-99.99,Weather View 32 v60,2013-04-03 14:05:00,
2013-04-03 10:10:00,38.0,16.4,30.30,SW,225,7.0,14.0,41,0.00,,,-99.99,Weather View 32 v60,2013-04-03 14:10:00,
2013-04-03 10:15:00,36.0,15.1,30.30,West,270,0.0,14.0,42,0.00,,,-99.99,Weather View 32 v60,2013-04-03 14:15:00,
2013-04-03 10:25:00,38.0,16.4,30.30,WSW,247,1.0,13.0,41,0.00,,,-99.99,Weather View 32 v60,2013-04-03 14:25:00,
2013-04-03 10:35:00,39.0,14.3,30.30,SW,225,4.0,12.0,36,0.00,,,-99.99,Weather View 32 v60,2013-04-03 14:35:00,
2013-04-03 10:45:00,39.0,16.1,30.31,West,270,0.0,12.0,39,0.00,,,-99.99,Weather View 32 v60,2013-04-03 14:45:00,
2013-04-03 10:50:00,39.0,14.9,30.31,WNW,292,7.0,12.0,37,0.00,,,-99.99,Weather View 32 v60,2013-04-03 14:50:00,
2013-04-03 11:00:00,40.0,15.8,30.31,West,270,3.0,12.0,37,0.00,,,-99.99,Weather View 32 v60,2013-04-03 15:00:00,
2013-04-03 11:05:00,42.0,17.6,30.31,SW,225,3.0,12.0,37,0.00,,,-99.99,Weather View 32 v60,2013-04-03 15:05:00,
2013-04-03 11:10:00,40.0,13.9,30.30,WSW,247,3.0,12.0,34,0.00,,,-99.99,Weather View 32 v60,2013-04-03 15:10:00,
2013-04-03 11:20:00,41.0,14.7,30.31,SW,225,6.0,14.0,34,0.00,,,-99.99,Weather View 32 v60,2013-04-03 15:20:00,
2013-04-03 11:25:00,40.0,14.5,30.31,West,270,4.0,14.0,35,0.00,,,-99.99,Weather View 32 v60,2013-04-03 15:25:00,
2013-04-03 11:35:00,41.0,15.4,30.32,West,270,1.0,14.0,35,0.00,,,-99.99,Weather View 32 v60,2013-04-03 15:35:00,
2013-04-03 11:40:00,40.0,15.8,30.32,SW,225,6.0,14.0,37,0.00,,,-99.99,Weather View 32 v60,2013-04-03 15:40:00,
2013-04-03 11:45:00,40.0,14.5,30.32,West,270,4.0,14.0,35,0.00,,,-99.99,Weather View 32 v60,2013-04-03 15:45:00,
2013-04-03 11:55:00,41.0,15.4,30.32,WSW,247,6.0,14.0,35,0.00,,,-99.99,Weather View 32 v60,2013-04-03 15:55:00,
2013-04-03 12:00:00,41.0,14.7,30.32,West,270,3.0,14.0,34,0.00,,,-99.99,Weather View 32 v60,2013-04-03 16:00:00,
2013-04-03 12:05:00,41.0,16.1,30.32,WSW,247,0.0,14.0,36,0.00,,,-99.99,Weather View 32 v60,2013-04-03 16:05:00,
2013-04-03 12:10:00,41.0,14.7,30.31,WSW,247,4.0,14.0,34,0.00,,,-99.99,Weather View 32 v60,2013-04-03 16:10:00,
2013-04-03 12:15:00,42.0,16.3,30.31,West,270,3.0,14.0,35,0.00,,,-99.99,Weather View 32 v60,2013-04-03 16:15:00,
2013-04-03 12:25:00,42.0,14.2,30.31,SW,225,6.0,13.0,32,0.00,,,-99.99,Weather View 32 v60,2013-04-03 16:25:00,
2013-04-03 12:35:00,42.0,14.9,30.30,NNW,337,3.0,15.0,33,0.00,,,-99.99,Weather View 32 v60,2013-04-03 16:35:00,
2013-04-03 12:45:00,43.0,14.4,30.29,WNW,292,7.0,15.0,31,0.00,,,-99.99,Weather View 32 v60,2013-04-03 16:45:00,
2013-04-03 13:00:00,42.0,13.5,30.29,WSW,247,2.0,15.0,31,0.00,,,-99.99,Weather View 32 v60,2013-04-03 17:00:00,
2013-04-03 13:05:00,41.0,14.1,30.29,West,270,4.0,15.0,33,0.00,,,-99.99,Weather View 32 v60,2013-04-03 17:05:00,
2013-04-03 13:15:00,42.0,14.9,30.29,SW,225,3.0,15.0,33,0.00,,,-99.99,Weather View 32 v60,2013-04-03 17:15:00,
2013-04-03 13:25:00,43.0,16.5,30.29,West,270,4.0,15.0,34,0.00,,,-99.99,Weather View 32 v60,2013-04-03 17:25:00,
2013-04-03 13:35:00,44.0,14.5,30.29,WSW,247,3.0,15.0,30,0.00,,,-99.99,Weather View 32 v60,2013-04-03 17:35:00,
2013-04-03 13:40:00,43.0,12.9,30.28,WSW,247,4.0,16.0,29,0.00,,,-99.99,Weather View 32 v60,2013-04-03 17:40:00,
2013-04-03 13:50:00,44.0,14.5,30.28,West,270,8.0,16.0,30,0.00,,,-99.99,Weather View 32 v60,2013-04-03 17:50:00,
2013-04-03 14:00:00,45.0,16.1,30.27,SW,225,3.0,16.0,31,0.00,,,-99.99,Weather View 32 v60,2013-04-03 18:00:00,
2013-04-03 14:08:00,45.0,13.8,30.27,West,270,5.0,16.0,28,0.00,,,-99.99,Weather View 32 v60,2013-04-03 18:08:00,
2013-04-03 14:15:00,43.0,15.1,30.27,WNW,292,6.0,16.0,32,0.00,,,-99.99,Weather View 32 v60,2013-04-03 18:15:00,
2013-04-03 14:25:00,44.0,16.7,30.27,WNW,292,5.0,16.0,33,0.00,,,-99.99,Weather View 32 v60,2013-04-03 18:25:00,
2013-04-03 14:35:00,43.0,14.4,30.27,West,270,5.0,16.0,31,0.00,,,-99.99,Weather View 32 v60,2013-04-03 18:35:00,
2013-04-03 14:40:00,44.0,14.5,30.27,WSW,247,4.0,16.0,30,0.00,,,-99.99,Weather View 32 v60,2013-04-03 18:40:00,
2013-04-03 14:50:00,45.0,14.6,30.27,WNW,292,0.0,16.0,29,0.00,,,-99.99,Weather View 32 v60,2013-04-03 18:50:00,
2013-04-03 14:55:00,44.0,15.3,30.27,West,270,8.0,16.0,31,0.00,,,-99.99,Weather View 32 v60,2013-04-03 18:55:00,
2013-04-03 15:05:00,42.0,12.8,30.26,NNW,337,5.0,15.0,30,0.00,,,-99.99,Weather View 32 v60,2013-04-03 19:05:00,
2013-04-03 15:15:00,45.0,13.8,30.27,SW,225,1.0,15.0,28,0.00,,,-99.99,Weather View 32 v60,2013-04-03 19:15:00,
2013-04-03 15:20:00,44.0,14.5,30.27,WSW,247,7.0,18.0,30,0.00,,,-99.99,Weather View 32 v60,2013-04-03 19:20:00,
2013-04-03 15:25:00,44.0,14.5,30.27,WSW,247,6.0,18.0,30,0.00,,,-99.99,Weather View 32 v60,2013-04-03 19:25:00,
2013-04-03 15:35:00,45.0,15.4,30.27,WSW,247,5.0,18.0,30,0.00,,,-99.99,Weather View 32 v60,2013-04-03 19:35:00,
2013-04-03 15:45:00,45.0,14.6,30.26,WNW,292,5.0,18.0,29,0.00,,,-99.99,Weather View 32 v60,2013-04-03 19:45:00,
2013-04-03 15:50:00,44.0,12.9,30.25,NNW,337,3.0,18.0,28,0.00,,,-99.99,Weather View 32 v60,2013-04-03 19:50:00,
2013-04-03 15:55:00,44.0,12.9,30.25,NNW,337,2.0,18.0,28,0.00,,,-99.99,Weather View 32 v60,2013-04-03 19:55:00,
2013-04-03 16:00:00,43.0,12.1,30.26,West,270,5.0,18.0,28,0.00,,,-99.99,Weather View 32 v60,2013-04-03 20:00:00,
2013-04-03 16:09:00,42.0,12.0,30.26,NW,315,0.0,18.0,29,0.00,,,-99.99,Weather View 32 v60,2013-04-03 20:09:00,
2013-04-03 16:15:00,45.0,15.4,30.27,WNW,292,4.0,18.0,30,0.00,,,-99.99,Weather View 32 v60,2013-04-03 20:15:00,
2013-04-03 16:25:00,44.0,12.1,30.27,West,270,5.0,18.0,27,0.00,,,-99.99,Weather View 32 v60,2013-04-03 20:25:00,
2013-04-03 16:35:00,44.0,12.1,30.28,West,270,10.0,18.0,27,0.00,,,-99.99,Weather View 32 v60,2013-04-03 20:35:00,
2013-04-03 16:40:00,43.0,12.9,30.27,NNW,337,4.0,18.0,29,0.00,,,-99.99,Weather View 32 v60,2013-04-03 20:40:00,
2013-04-03 16:45:00,44.0,12.9,30.27,ENE,67,0.0,18.0,28,0.00,,,-99.99,Weather View 32 v60,2013-04-03 20:45:00,
2013-04-03 16:55:00,46.0,13.0,30.27,WSW,247,0.0,18.0,26,0.00,,,-99.99,Weather View 32 v60,2013-04-03 20:55:00,
2013-04-03 17:00:00,45.0,13.8,30.27,NW,315,0.0,18.0,28,0.00,,,-99.99,Weather View 32 v60,2013-04-03 21:00:00,
2013-04-03 17:09:00,44.0,12.1,30.27,West,270,3.0,18.0,27,0.00,,,-99.99,Weather View 32 v60,2013-04-03 21:09:00,
2013-04-03 17:15:00,43.0,11.3,30.28,West,270,3.0,18.0,27,0.00,,,-99.99,Weather View 32 v60,2013-04-03 21:15:00,
2013-04-03 17:25:00,42.0,12.0,30.28,West,270,7.0,18.0,29,0.00,,,-99.99,Weather View 32 v60,2013-04-03 21:25:00,
2013-04-03 17:30:00,42.0,10.4,30.29,WSW,247,1.0,18.0,27,0.00,,,-99.99,Weather View 32 v60,2013-04-03 21:30:00,
2013-04-03 17:35:00,42.0,12.0,30.29,WSW,247,0.0,18.0,29,0.00,,,-99.99,Weather View 32 v60,2013-04-03 21:35:00,
2013-04-03 17:45:00,41.0,11.9,30.30,West,270,0.0,19.0,30,0.00,,,-99.99,Weather View 32 v60,2013-04-03 21:45:00,
2013-04-03 17:55:00,41.0,11.1,30.31,WSW,247,9.0,19.0,29,0.00,,,-99.99,Weather View 32 v60,2013-04-03 21:55:00,
2013-04-03 18:00:00,42.0,13.5,30.32,NW,315,8.0,19.0,31,0.00,,,-99.99,Weather View 32 v60,2013-04-03 22:00:00,
2013-04-03 18:10:00,42.0,11.2,30.33,WNW,292,7.0,19.0,28,0.00,,,-99.99,Weather View 32 v60,2013-04-03 22:10:00,
2013-04-03 18:20:00,41.0,11.1,30.34,NW,315,5.0,19.0,29,0.00,,,-99.99,Weather View 32 v60,2013-04-03 22:20:00,
2013-04-03 18:25:00,40.0,11.0,30.34,WSW,247,0.0,19.0,30,0.00,,,-99.99,Weather View 32 v60,2013-04-03 22:25:00,
2013-04-03 18:35:00,40.0,11.8,30.35,SW,225,2.0,19.0,31,0.00,,,-99.99,Weather View 32 v60,2013-04-03 22:35:00,
2013-04-03 18:40:00,41.0,11.1,30.36,WSW,247,5.0,19.0,29,0.00,,,-99.99,Weather View 32 v60,2013-04-03 22:40:00,
2013-04-03 18:49:00,41.0,9.5,30.36,West,270,8.0,16.0,27,0.00,,,-99.99,Weather View 32 v60,2013-04-03 22:49:00,
2013-04-03 18:55:00,41.0,11.1,30.36,SW,225,0.0,16.0,29,0.00,,,-99.99,Weather View 32 v60,2013-04-03 22:55:00,
2013-04-03 19:00:00,40.0,10.3,30.36,NW,315,3.0,16.0,29,0.00,,,-99.99,Weather View 32 v60,2013-04-03 23:00:00,
2013-04-03 19:05:00,40.0,8.7,30.36,SW,225,2.0,16.0,27,0.00,,,-99.99,Weather View 32 v60,2013-04-03 23:05:00,
2013-04-03 19:10:00,39.0,9.4,30.37,WSW,247,5.0,16.0,29,0.00,,,-99.99,Weather View 32 v60,2013-04-03 23:10:00,
2013-04-03 19:20:00,39.0,10.2,30.37,WNW,292,0.0,16.0,30,0.00,,,-99.99,Weather View 32 v60,2013-04-03 23:20:00,
2013-04-03 19:30:00,38.0,10.0,30.39,WSW,247,6.0,16.0,31,0.00,,,-99.99,Weather View 32 v60,2013-04-03 23:30:00,
2013-04-03 19:40:00,37.0,9.8,30.39,WNW,292,2.0,16.0,32,0.00,,,-99.99,Weather View 32 v60,2013-04-03 23:40:00,
2013-04-03 19:45:00,37.0,9.1,30.39,West,270,2.0,16.0,31,0.00,,,-99.99,Weather View 32 v60,2013-04-03 23:45:00,
2013-04-03 19:55:00,37.0,9.8,30.40,WSW,247,3.0,16.0,32,0.00,,,-99.99,Weather View 32 v60,2013-04-03 23:55:00,
2013-04-03 20:00:00,37.0,11.2,30.41,West,270,2.0,16.0,34,0.00,,,-99.99,Weather View 32 v60,2013-04-04 00:00:00,
2013-04-03 20:10:00,37.0,9.8,30.40,West,270,8.0,16.0,32,0.00,,,-99.99,Weather View 32 v60,2013-04-04 00:10:00,
2013-04-03 20:20:00,36.0,10.3,30.41,SW,225,6.0,14.0,34,0.00,,,-99.99,Weather View 32 v60,2013-04-04 00:20:00,
2013-04-03 20:25:00,36.0,10.3,30.41,West,270,5.0,14.0,34,0.00,,,-99.99,Weather View 32 v60,2013-04-04 00:25:00,
2013-04-03 20:35:00,35.0,11.3,30.41,WNW,292,0.0,14.0,37,0.00,,,-99.99,Weather View 32 v60,2013-04-04 00:35:00,
2013-04-03 20:40:00,35.0,10.7,30.43,SW,225,0.0,14.0,36,0.00,,,-99.99,Weather View 32 v60,2013-04-04 00:40:00,
2013-04-03 20:45:00,34.0,10.4,30.43,SW,225,0.0,14.0,37,0.00,,,-99.99,Weather View 32 v60,2013-04-04 00:45:00,
2013-04-03 20:55:00,34.0,11.0,30.43,West,270,0.0,14.0,38,0.00,,,-99.99,Weather View 32 v60,2013-04-04 00:55:00,
2013-04-03 21:00:00,34.0,11.0,30.43,West,270,0.0,14.0,38,0.00,,,-99.99,Weather View 32 v60,2013-04-04 01:00:00,
2013-04-03 21:10:00,33.0,11.8,30.43,WSW,247,0.0,14.0,41,0.00,,,-99.99,Weather View 32 v60,2013-04-04 01:10:00,
2013-04-03 21:15:00,32.0,11.5,30.43,SW,225,0.0,14.0,42,0.00,,,-99.99,Weather View 32 v60,2013-04-04 01:15:00,
2013-04-03 21:25:00,33.0,12.4,30.44,West,270,0.0,7.0,42,0.00,,,-99.99,Weather View 32 v60,2013-04-04 01:25:00,
2013-04-03 21:35:00,33.0,12.4,30.44,West,270,0.0,6.0,42,0.00,,,-99.99,Weather View 32 v60,2013-04-04 01:35:00,
2013-04-03 21:40:00,32.0,12.0,30.44,West,270,0.0,6.0,43,0.00,,,-99.99,Weather View 32 v60,2013-04-04 01:40:00,
2013-04-03 21:45:00,32.0,12.5,30.44,West,270,0.0,6.0,44,0.00,,,-99.99,Weather View 32 v60,2013-04-04 01:45:00,
2013-04-03 21:55:00,32.0,13.0,30.45,NW,315,0.0,6.0,45,0.00,,,-99.99,Weather View 32 v60,2013-04-04 01:55:00,
2013-04-03 22:00:00,31.0,12.1,30.45,WNW,292,0.0,6.0,45,0.00,,,-99.99,Weather View 32 v60,2013-04-04 02:00:00,
2013-04-03 22:05:00,31.0,13.6,30.45,West,270,0.0,6.0,48,0.00,,,-99.99,Weather View 32 v60,2013-04-04 02:05:00,
2013-04-03 22:12:00,31.0,13.6,30.45,West,270,0.0,6.0,48,0.00,,,-99.99,Weather View 32 v60,2013-04-04 02:12:00,
2013-04-03 22:20:00,30.0,12.7,30.45,West,270,0.0,5.0,48,0.00,,,-99.99,Weather View 32 v60,2013-04-04 02:20:00,
2013-04-03 22:30:00,30.0,12.7,30.47,WSW,247,0.0,4.0,48,0.00,,,-99.99,Weather View 32 v60,2013-04-04 02:30:00,
2013-04-03 22:35:00,29.0,11.8,30.47,SW,225,0.0,3.0,48,0.00,,,-99.99,Weather View 32 v60,2013-04-04 02:35:00,
2013-04-03 22:45:00,29.0,12.7,30.47,WSW,247,0.0,3.0,50,0.00,,,-99.99,Weather View 32 v60,2013-04-04 02:45:00,
2013-04-03 22:50:00,30.0,13.6,30.47,WSW,247,0.0,4.0,50,0.00,,,-99.99,Weather View 32 v60,2013-04-04 02:50:00,
2013-04-03 23:00:00,31.0,12.1,30.47,West,270,0.0,10.0,45,0.00,,,-99.99,Weather View 32 v60,2013-04-04 03:00:00,
2013-04-03 23:05:00,31.0,13.1,30.47,West,270,5.0,10.0,47,0.00,,,-99.99,Weather View 32 v60,2013-04-04 03:05:00,
2013-04-03 23:13:00,31.0,12.1,30.47,WNW,292,0.0,10.0,45,0.00,,,-99.99,Weather View 32 v60,2013-04-04 03:13:00,
2013-04-03 23:20:00,31.0,13.1,30.47,West,270,0.0,10.0,47,0.00,,,-99.99,Weather View 32 v60,2013-04-04 03:20:00,
2013-04-03 23:30:00,31.0,11.6,30.47,North,360,0.0,11.0,44,0.00,,,-99.99,Weather View 32 v60,2013-04-04 03:30:00,
2013-04-03 23:40:00,31.0,12.1,30.46,West,270,6.0,14.0,45,0.00,,,-99.99,Weather View 32 v60,2013-04-04 03:40:00,
2013-04-03 23:45:00,31.0,11.1,30.46,WNW,292,2.0,14.0,43,0.00,,,-99.99,Weather View 32 v60,2013-04-04 03:45:00,
2013-04-03 23:55:00,31.0,12.1,30.46,WNW,292,3.0,14.0,45,0.00,,,-99.99,Weather View 32 v60,2013-04-04 03:55:00,